sensor_id;sensor_type;location;lat;lon;timestamp;temperature;humidity
74294;DHT22;64044;59.904;10.738;2023-06-19T15:53:52;39.40;24.90
74294;DHT22;64044;59.904;10.738;2023-06-19T15:56:18;39.30;25.00
74294;DHT22;64044;59.904;10.738;2023-06-19T15:58:43;39.20;24.90
74294;DHT22;64044;59.904;10.738;2023-06-19T16:01:09;39.10;24.70
74294;DHT22;64044;59.904;10.738;2023-06-19T16:03:35;39.00;24.60
74294;DHT22;64044;59.904;10.738;2023-06-19T16:06:00;38.80;24.40
74294;DHT22;64044;59.904;10.738;2023-06-19T16:08:26;38.60;24.40
74294;DHT22;64044;59.904;10.738;2023-06-19T16:10:52;38.30;24.30
74294;DHT22;64044;59.904;10.738;2023-06-19T16:13:18;38.00;24.60
74294;DHT22;64044;59.904;10.738;2023-06-19T16:15:44;37.70;24.80
74294;DHT22;64044;59.904;10.738;2023-06-19T16:18:10;37.30;25.10
74294;DHT22;64044;59.904;10.738;2023-06-19T16:20:35;36.90;25.30
74294;DHT22;64044;59.904;10.738;2023-06-19T16:23:01;36.40;25.60
74294;DHT22;64044;59.904;10.738;2023-06-19T16:25:27;36.10;26.10
74294;DHT22;64044;59.904;10.738;2023-06-19T16:27:52;35.70;26.40
74294;DHT22;64044;59.904;10.738;2023-06-19T16:30:18;35.40;26.90
74294;DHT22;64044;59.904;10.738;2023-06-19T16:32:44;35.30;27.40
74294;DHT22;64044;59.904;10.738;2023-06-19T16:35:10;35.30;27.90
74294;DHT22;64044;59.904;10.738;2023-06-19T16:37:36;35.40;28.10
74294;DHT22;64044;59.904;10.738;2023-06-19T16:40:02;35.70;28.20
74294;DHT22;64044;59.904;10.738;2023-06-19T16:42:30;35.90;27.70
74294;DHT22;64044;59.904;10.738;2023-06-19T16:44:56;36.10;27.30
74294;DHT22;64044;59.904;10.738;2023-06-19T16:47:21;36.30;27.30
74294;DHT22;64044;59.904;10.738;2023-06-19T16:49:47;36.50;27.00
74294;DHT22;64044;59.904;10.738;2023-06-19T16:52:13;36.60;26.60
74294;DHT22;64044;59.904;10.738;2023-06-19T16:54:39;36.50;26.40
74294;DHT22;64044;59.904;10.738;2023-06-19T16:57:05;36.50;26.40
74294;DHT22;64044;59.904;10.738;2023-06-19T16:59:30;36.30;26.40
74294;DHT22;64044;59.904;10.738;2023-06-19T17:01:56;36.10;26.30
74294;DHT22;64044;59.904;10.738;2023-06-19T17:04:21;35.90;26.30
74294;DHT22;64044;59.904;10.738;2023-06-19T17:06:47;35.80;26.70
74294;DHT22;64044;59.904;10.738;2023-06-19T17:09:13;35.70;27.00
74294;DHT22;64044;59.904;10.738;2023-06-19T17:11:39;35.70;27.30
74294;DHT22;64044;59.904;10.738;2023-06-19T17:14:05;35.80;27.20
74294;DHT22;64044;59.904;10.738;2023-06-19T17:16:31;35.90;27.20
74294;DHT22;64044;59.904;10.738;2023-06-19T17:18:57;36.10;27.20
74294;DHT22;64044;59.904;10.738;2023-06-19T17:21:22;36.30;27.40
74294;DHT22;64044;59.904;10.738;2023-06-19T17:23:48;36.60;28.00
74294;DHT22;64044;59.904;10.738;2023-06-19T17:26:14;36.90;28.40
74294;DHT22;64044;59.904;10.738;2023-06-19T17:28:39;37.20;28.30
74294;DHT22;64044;59.904;10.738;2023-06-19T17:31:05;37.40;28.00
74294;DHT22;64044;59.904;10.738;2023-06-19T17:33:33;37.50;27.70
74294;DHT22;64044;59.904;10.738;2023-06-19T17:35:58;37.40;28.00
74294;DHT22;64044;59.904;10.738;2023-06-19T17:38:25;37.10;27.30
74294;DHT22;64044;59.904;10.738;2023-06-19T17:40:51;36.90;27.40
74294;DHT22;64044;59.904;10.738;2023-06-19T17:43:17;36.50;27.30
74294;DHT22;64044;59.904;10.738;2023-06-19T17:45:42;36.00;27.40
74294;DHT22;64044;59.904;10.738;2023-06-19T17:48:08;35.60;27.60
74294;DHT22;64044;59.904;10.738;2023-06-19T17:50:34;35.20;28.10
74294;DHT22;64044;59.904;10.738;2023-06-19T17:52:59;34.70;28.60
74294;DHT22;64044;59.904;10.738;2023-06-19T17:55:25;34.30;29.10
74294;DHT22;64044;59.904;10.738;2023-06-19T17:57:51;33.90;29.50
74294;DHT22;64044;59.904;10.738;2023-06-19T18:00:18;33.50;30.00
74294;DHT22;64044;59.904;10.738;2023-06-19T18:02:43;33.10;30.20
74294;DHT22;64044;59.904;10.738;2023-06-19T18:05:10;32.80;30.70
74294;DHT22;64044;59.904;10.738;2023-06-19T18:07:36;32.50;31.00
74294;DHT22;64044;59.904;10.738;2023-06-19T18:10:02;32.10;31.40
74294;DHT22;64044;59.904;10.738;2023-06-19T18:12:28;31.80;31.80
74294;DHT22;64044;59.904;10.738;2023-06-19T18:14:54;31.50;32.30
74294;DHT22;64044;59.904;10.738;2023-06-19T18:17:20;31.20;32.40
74294;DHT22;64044;59.904;10.738;2023-06-19T18:19:45;30.90;32.90
74294;DHT22;64044;59.904;10.738;2023-06-19T18:22:11;30.60;33.40
74294;DHT22;64044;59.904;10.738;2023-06-19T18:24:37;30.40;33.90
74294;DHT22;64044;59.904;10.738;2023-06-19T18:27:02;30.10;34.40
74294;DHT22;64044;59.904;10.738;2023-06-19T18:29:28;29.80;35.00
74294;DHT22;64044;59.904;10.738;2023-06-19T18:31:56;29.60;35.40
74294;DHT22;64044;59.904;10.738;2023-06-19T18:34:22;29.40;36.50
74294;DHT22;64044;59.904;10.738;2023-06-19T18:36:48;29.10;37.20
74294;DHT22;64044;59.904;10.738;2023-06-19T18:39:14;28.90;37.50
74294;DHT22;64044;59.904;10.738;2023-06-19T18:41:39;28.70;37.90
74294;DHT22;64044;59.904;10.738;2023-06-19T18:44:06;28.50;38.30
74294;DHT22;64044;59.904;10.738;2023-06-19T18:46:31;28.30;38.80
74294;DHT22;64044;59.904;10.738;2023-06-19T18:48:57;28.20;39.10
74294;DHT22;64044;59.904;10.738;2023-06-19T18:51:23;28.00;39.60
74294;DHT22;64044;59.904;10.738;2023-06-19T18:53:48;27.90;39.90
74294;DHT22;64044;59.904;10.738;2023-06-19T18:56:14;27.80;40.30
74294;DHT22;64044;59.904;10.738;2023-06-19T18:58:40;27.60;40.20
74294;DHT22;64044;59.904;10.738;2023-06-19T19:01:06;27.50;40.50
74294;DHT22;64044;59.904;10.738;2023-06-19T19:03:31;27.30;41.00
74294;DHT22;64044;59.904;10.738;2023-06-19T19:05:57;27.20;40.90
74294;DHT22;64044;59.904;10.738;2023-06-19T19:08:23;27.10;41.10
74294;DHT22;64044;59.904;10.738;2023-06-19T19:10:49;27.00;41.30
74294;DHT22;64044;59.904;10.738;2023-06-19T19:13:14;26.90;41.50
74294;DHT22;64044;59.904;10.738;2023-06-19T19:15:40;26.80;41.90
74294;DHT22;64044;59.904;10.738;2023-06-19T19:18:06;26.80;42.20
74294;DHT22;64044;59.904;10.738;2023-06-19T19:20:34;26.70;42.40
74294;DHT22;64044;59.904;10.738;2023-06-19T19:22:59;26.60;42.60
74294;DHT22;64044;59.904;10.738;2023-06-19T19:25:25;26.60;42.70
74294;DHT22;64044;59.904;10.738;2023-06-19T19:27:50;26.50;43.20
74294;DHT22;64044;59.904;10.738;2023-06-19T19:30:16;26.40;43.20
74294;DHT22;64044;59.904;10.738;2023-06-19T19:32:42;26.40;43.30
74294;DHT22;64044;59.904;10.738;2023-06-19T19:35:09;26.30;43.40
74294;DHT22;64044;59.904;10.738;2023-06-19T19:37:34;26.30;43.50
74294;DHT22;64044;59.904;10.738;2023-06-19T19:40:00;26.20;43.90
74294;DHT22;64044;59.904;10.738;2023-06-19T19:42:27;26.20;44.00
74294;DHT22;64044;59.904;10.738;2023-06-19T19:44:53;26.10;44.00
74294;DHT22;64044;59.904;10.738;2023-06-19T19:47:19;26.00;44.20
74294;DHT22;64044;59.904;10.738;2023-06-19T19:49:46;26.00;44.40
74294;DHT22;64044;59.904;10.738;2023-06-19T19:52:11;26.00;44.50
74294;DHT22;64044;59.904;10.738;2023-06-19T19:54:37;25.90;44.80
74294;DHT22;64044;59.904;10.738;2023-06-19T19:57:03;25.90;44.90
74294;DHT22;64044;59.904;10.738;2023-06-19T19:59:28;25.80;45.10
74294;DHT22;64044;59.904;10.738;2023-06-19T20:01:54;25.80;45.00
74294;DHT22;64044;59.904;10.738;2023-06-19T20:04:20;25.70;45.10
74294;DHT22;64044;59.904;10.738;2023-06-19T20:06:46;25.70;45.50
74294;DHT22;64044;59.904;10.738;2023-06-19T20:09:11;25.60;45.40
74294;DHT22;64044;59.904;10.738;2023-06-19T20:11:38;25.60;45.40
74294;DHT22;64044;59.904;10.738;2023-06-19T20:14:03;25.50;45.50
74294;DHT22;64044;59.904;10.738;2023-06-19T20:16:29;25.50;45.70
74294;DHT22;64044;59.904;10.738;2023-06-19T20:18:55;25.40;45.80
74294;DHT22;64044;59.904;10.738;2023-06-19T20:21:21;25.40;46.00
74294;DHT22;64044;59.904;10.738;2023-06-19T20:23:46;25.40;45.70
74294;DHT22;64044;59.904;10.738;2023-06-19T20:26:12;25.30;45.80
74294;DHT22;64044;59.904;10.738;2023-06-19T20:28:39;25.30;46.20
74294;DHT22;64044;59.904;10.738;2023-06-19T20:31:05;25.20;46.10
74294;DHT22;64044;59.904;10.738;2023-06-19T20:33:31;25.20;46.40
74294;DHT22;64044;59.904;10.738;2023-06-19T20:35:56;25.20;46.70
74294;DHT22;64044;59.904;10.738;2023-06-19T20:38:26;25.10;47.10
74294;DHT22;64044;59.904;10.738;2023-06-19T20:40:52;25.10;46.40
74294;DHT22;64044;59.904;10.738;2023-06-19T20:43:18;25.10;47.00
74294;DHT22;64044;59.904;10.738;2023-06-19T20:45:43;25.00;47.40
74294;DHT22;64044;59.904;10.738;2023-06-19T20:48:10;25.00;47.80
74294;DHT22;64044;59.904;10.738;2023-06-19T20:50:35;24.90;48.10
74294;DHT22;64044;59.904;10.738;2023-06-19T20:53:01;24.80;48.50
74294;DHT22;64044;59.904;10.738;2023-06-19T20:55:27;24.80;48.80
74294;DHT22;64044;59.904;10.738;2023-06-19T20:57:53;24.80;49.10
74294;DHT22;64044;59.904;10.738;2023-06-19T21:00:18;24.70;49.30
74294;DHT22;64044;59.904;10.738;2023-06-19T21:02:45;24.60;49.60
74294;DHT22;64044;59.904;10.738;2023-06-19T21:05:15;24.50;49.70
74294;DHT22;64044;59.904;10.738;2023-06-19T21:07:42;24.50;50.20
74294;DHT22;64044;59.904;10.738;2023-06-19T21:10:08;24.40;50.30
74294;DHT22;64044;59.904;10.738;2023-06-19T21:12:34;24.30;50.60
74294;DHT22;64044;59.904;10.738;2023-06-19T21:15:00;24.30;50.90
74294;DHT22;64044;59.904;10.738;2023-06-19T21:17:25;24.20;51.00
74294;DHT22;64044;59.904;10.738;2023-06-19T21:19:51;24.20;51.30
74294;DHT22;64044;59.904;10.738;2023-06-19T21:22:17;24.10;51.50
74294;DHT22;64044;59.904;10.738;2023-06-19T21:24:43;24.10;51.60
74294;DHT22;64044;59.904;10.738;2023-06-19T21:27:08;24.00;51.80
74294;DHT22;64044;59.904;10.738;2023-06-19T21:29:34;24.00;52.00
74294;DHT22;64044;59.904;10.738;2023-06-19T21:32:06;24.00;52.10
74294;DHT22;64044;59.904;10.738;2023-06-19T21:34:32;23.90;52.20
74294;DHT22;64044;59.904;10.738;2023-06-19T21:36:58;23.90;52.20
74294;DHT22;64044;59.904;10.738;2023-06-19T21:39:23;23.90;52.30
74294;DHT22;64044;59.904;10.738;2023-06-19T21:41:49;23.90;53.00
74294;DHT22;64044;59.904;10.738;2023-06-19T21:44:15;23.90;53.10
74294;DHT22;64044;59.904;10.738;2023-06-19T21:46:40;23.90;52.50
74294;DHT22;64044;59.904;10.738;2023-06-19T21:49:06;23.90;52.60
74294;DHT22;64044;59.904;10.738;2023-06-19T21:51:32;23.90;52.60
74294;DHT22;64044;59.904;10.738;2023-06-19T21:53:59;23.90;52.60
74294;DHT22;64044;59.904;10.738;2023-06-19T21:56:25;23.90;52.70
74294;DHT22;64044;59.904;10.738;2023-06-19T21:58:50;23.90;52.60
74294;DHT22;64044;59.904;10.738;2023-06-19T22:01:16;23.90;52.30
74294;DHT22;64044;59.904;10.738;2023-06-19T22:03:42;23.90;51.80
74294;DHT22;64044;59.904;10.738;2023-06-19T22:06:08;23.90;51.50
74294;DHT22;64044;59.904;10.738;2023-06-19T22:08:33;23.90;51.40
74294;DHT22;64044;59.904;10.738;2023-06-19T22:10:59;23.90;51.80
74294;DHT22;64044;59.904;10.738;2023-06-19T22:13:25;23.90;51.20
74294;DHT22;64044;59.904;10.738;2023-06-19T22:15:55;23.80;51.10
74294;DHT22;64044;59.904;10.738;2023-06-19T22:18:21;23.90;51.10
74294;DHT22;64044;59.904;10.738;2023-06-19T22:20:47;23.80;51.10
74294;DHT22;64044;59.904;10.738;2023-06-19T22:23:12;23.80;51.10
74294;DHT22;64044;59.904;10.738;2023-06-19T22:25:38;23.80;51.00
74294;DHT22;64044;59.904;10.738;2023-06-19T22:28:04;23.80;51.10
74294;DHT22;64044;59.904;10.738;2023-06-19T22:30:30;23.80;51.00
74294;DHT22;64044;59.904;10.738;2023-06-19T22:32:55;23.70;51.10
74294;DHT22;64044;59.904;10.738;2023-06-19T22:35:21;23.70;51.10
74294;DHT22;64044;59.904;10.738;2023-06-19T22:37:47;23.70;51.10
74294;DHT22;64044;59.904;10.738;2023-06-19T22:40:12;23.60;51.10
74294;DHT22;64044;59.904;10.738;2023-06-19T22:42:38;23.60;51.10
74294;DHT22;64044;59.904;10.738;2023-06-19T22:45:08;23.60;51.10
74294;DHT22;64044;59.904;10.738;2023-06-19T22:47:34;23.60;51.20
74294;DHT22;64044;59.904;10.738;2023-06-19T22:50:04;23.50;51.10
74294;DHT22;64044;59.904;10.738;2023-06-19T22:52:31;23.50;51.20
74294;DHT22;64044;59.904;10.738;2023-06-19T22:54:59;23.50;51.30
74294;DHT22;64044;59.904;10.738;2023-06-19T22:57:25;23.40;51.30
74294;DHT22;64044;59.904;10.738;2023-06-19T22:59:51;23.40;51.40
74294;DHT22;64044;59.904;10.738;2023-06-19T23:02:17;23.40;51.40
74294;DHT22;64044;59.904;10.738;2023-06-19T23:04:42;23.30;51.40
74294;DHT22;64044;59.904;10.738;2023-06-19T23:07:09;23.30;51.40
74294;DHT22;64044;59.904;10.738;2023-06-19T23:09:34;23.30;51.40
74294;DHT22;64044;59.904;10.738;2023-06-19T23:12:00;23.30;51.40
74294;DHT22;64044;59.904;10.738;2023-06-19T23:14:26;23.20;51.40
74294;DHT22;64044;59.904;10.738;2023-06-19T23:16:54;23.20;51.40
74294;DHT22;64044;59.904;10.738;2023-06-19T23:19:20;23.20;51.40
74294;DHT22;64044;59.904;10.738;2023-06-19T23:21:45;23.20;51.50
74294;DHT22;64044;59.904;10.738;2023-06-19T23:24:11;23.20;51.60
74294;DHT22;64044;59.904;10.738;2023-06-19T23:26:37;23.10;51.60
74294;DHT22;64044;59.904;10.738;2023-06-19T23:29:03;23.10;51.70
74294;DHT22;64044;59.904;10.738;2023-06-19T23:31:29;23.10;51.70
74294;DHT22;64044;59.904;10.738;2023-06-19T23:33:55;23.10;51.70
74294;DHT22;64044;59.904;10.738;2023-06-19T23:36:27;23.10;51.90
74294;DHT22;64044;59.904;10.738;2023-06-19T23:38:54;23.10;52.40
74294;DHT22;64044;59.904;10.738;2023-06-19T23:41:20;23.00;51.80
74294;DHT22;64044;59.904;10.738;2023-06-19T23:43:47;23.10;51.90
74294;DHT22;64044;59.904;10.738;2023-06-19T23:46:13;23.00;51.90
74294;DHT22;64044;59.904;10.738;2023-06-19T23:48:43;23.10;51.90
74294;DHT22;64044;59.904;10.738;2023-06-19T23:51:08;23.00;52.10
74294;DHT22;64044;59.904;10.738;2023-06-19T23:53:34;23.00;52.00
74294;DHT22;64044;59.904;10.738;2023-06-19T23:56:00;23.00;52.00
74294;DHT22;64044;59.904;10.738;2023-06-19T23:58:26;23.00;52.00
